sensor_id;sensor_type;location;lat;lon;timestamp;temperature;humidity
52495;DHT22;38405;53.212;5.660;2023-12-20T00:00:57;6.70;99.90
52495;DHT22;38405;53.212;5.660;2023-12-20T00:03:23;6.60;99.90
52495;DHT22;38405;53.212;5.660;2023-12-20T00:05:49;6.60;99.90
52495;DHT22;38405;53.212;5.660;2023-12-20T00:08:15;6.60;99.90
52495;DHT22;38405;53.212;5.660;2023-12-20T00:10:41;6.80;99.90
52495;DHT22;38405;53.212;5.660;2023-12-20T00:13:07;6.70;99.90
52495;DHT22;38405;53.212;5.660;2023-12-20T00:15:33;6.70;99.90
52495;DHT22;38405;53.212;5.660;2023-12-20T00:17:59;6.80;99.90
52495;DHT22;38405;53.212;5.660;2023-12-20T00:20:26;6.80;99.90
52495;DHT22;38405;53.212;5.660;2023-12-20T00:22:53;7.00;99.90
52495;DHT22;38405;53.212;5.660;2023-12-20T00:25:18;7.20;99.90
52495;DHT22;38405;53.212;5.660;2023-12-20T00:27:44;7.10;99.90
52495;DHT22;38405;53.212;5.660;2023-12-20T00:30:10;6.90;99.90
52495;DHT22;38405;53.212;5.660;2023-12-20T00:32:36;6.90;99.90
52495;DHT22;38405;53.212;5.660;2023-12-20T00:35:04;7.00;99.90
52495;DHT22;38405;53.212;5.660;2023-12-20T00:37:30;7.00;99.90
52495;DHT22;38405;53.212;5.660;2023-12-20T00:39:55;7.10;99.90
52495;DHT22;38405;53.212;5.660;2023-12-20T00:42:21;7.00;99.90
52495;DHT22;38405;53.212;5.660;2023-12-20T00:44:47;7.00;99.90
52495;DHT22;38405;53.212;5.660;2023-12-20T00:47:12;7.00;99.90
52495;DHT22;38405;53.212;5.660;2023-12-20T00:49:38;7.10;99.90
52495;DHT22;38405;53.212;5.660;2023-12-20T00:52:04;7.00;99.90
52495;DHT22;38405;53.212;5.660;2023-12-20T00:54:30;7.10;99.90
52495;DHT22;38405;53.212;5.660;2023-12-20T00:56:56;7.20;99.90
52495;DHT22;38405;53.212;5.660;2023-12-20T00:59:22;7.20;99.90
52495;DHT22;38405;53.212;5.660;2023-12-20T01:01:47;7.20;99.90
52495;DHT22;38405;53.212;5.660;2023-12-20T01:04:13;7.30;99.90
52495;DHT22;38405;53.212;5.660;2023-12-20T01:06:39;7.20;99.90
52495;DHT22;38405;53.212;5.660;2023-12-20T01:09:04;7.20;99.90
52495;DHT22;38405;53.212;5.660;2023-12-20T01:11:30;7.20;99.90
52495;DHT22;38405;53.212;5.660;2023-12-20T01:13:55;7.10;99.90
52495;DHT22;38405;53.212;5.660;2023-12-20T01:16:21;7.20;99.90
52495;DHT22;38405;53.212;5.660;2023-12-20T01:18:47;7.30;99.90
52495;DHT22;38405;53.212;5.660;2023-12-20T01:21:12;7.30;99.90
52495;DHT22;38405;53.212;5.660;2023-12-20T01:23:38;7.20;99.90
52495;DHT22;38405;53.212;5.660;2023-12-20T01:26:03;7.20;99.90
52495;DHT22;38405;53.212;5.660;2023-12-20T01:28:31;7.40;99.90
52495;DHT22;38405;53.212;5.660;2023-12-20T01:30:57;7.20;99.90
52495;DHT22;38405;53.212;5.660;2023-12-20T01:33:23;7.20;99.90
52495;DHT22;38405;53.212;5.660;2023-12-20T01:35:48;7.30;99.90
52495;DHT22;38405;53.212;5.660;2023-12-20T01:38:14;7.30;99.90
52495;DHT22;38405;53.212;5.660;2023-12-20T01:40:40;7.30;99.90
52495;DHT22;38405;53.212;5.660;2023-12-20T01:43:09;7.80;99.90
52495;DHT22;38405;53.212;5.660;2023-12-20T01:45:35;7.30;99.90
52495;DHT22;38405;53.212;5.660;2023-12-20T01:48:01;7.30;99.90
52495;DHT22;38405;53.212;5.660;2023-12-20T01:50:28;7.30;99.90
52495;DHT22;38405;53.212;5.660;2023-12-20T01:53:00;7.30;99.90
52495;DHT22;38405;53.212;5.660;2023-12-20T01:55:27;7.30;99.90
52495;DHT22;38405;53.212;5.660;2023-12-20T01:57:55;7.40;99.90
52495;DHT22;38405;53.212;5.660;2023-12-20T02:00:22;7.40;99.90
52495;DHT22;38405;53.212;5.660;2023-12-20T02:02:54;7.30;99.90
52495;DHT22;38405;53.212;5.660;2023-12-20T02:05:22;7.40;99.90
52495;DHT22;38405;53.212;5.660;2023-12-20T02:07:49;7.30;99.90
52495;DHT22;38405;53.212;5.660;2023-12-20T02:10:15;7.30;99.90
52495;DHT22;38405;53.212;5.660;2023-12-20T02:12:41;7.30;99.90
52495;DHT22;38405;53.212;5.660;2023-12-20T02:15:07;7.60;99.90
52495;DHT22;38405;53.212;5.660;2023-12-20T02:17:33;7.30;99.90
52495;DHT22;38405;53.212;5.660;2023-12-20T02:19:59;7.40;99.90
52495;DHT22;38405;53.212;5.660;2023-12-20T02:22:24;7.30;99.90
52495;DHT22;38405;53.212;5.660;2023-12-20T02:24:50;7.50;99.90
52495;DHT22;38405;53.212;5.660;2023-12-20T02:27:18;7.40;99.90
52495;DHT22;38405;53.212;5.660;2023-12-20T02:29:47;7.30;99.90
52495;DHT22;38405;53.212;5.660;2023-12-20T02:32:13;7.40;99.90
52495;DHT22;38405;53.212;5.660;2023-12-20T02:34:39;7.60;99.90
52495;DHT22;38405;53.212;5.660;2023-12-20T02:37:04;7.30;99.90
52495;DHT22;38405;53.212;5.660;2023-12-20T02:39:30;7.30;99.90
52495;DHT22;38405;53.212;5.660;2023-12-20T02:41:56;7.30;99.90
52495;DHT22;38405;53.212;5.660;2023-12-20T02:44:21;7.40;99.90
52495;DHT22;38405;53.212;5.660;2023-12-20T02:46:47;7.40;99.90
52495;DHT22;38405;53.212;5.660;2023-12-20T02:49:13;7.40;99.90
52495;DHT22;38405;53.212;5.660;2023-12-20T02:51:38;7.30;99.90
52495;DHT22;38405;53.212;5.660;2023-12-20T02:54:04;7.30;99.90
52495;DHT22;38405;53.212;5.660;2023-12-20T02:56:32;7.20;99.90
52495;DHT22;38405;53.212;5.660;2023-12-20T02:58:57;7.30;99.90
52495;DHT22;38405;53.212;5.660;2023-12-20T03:01:23;7.30;99.90
52495;DHT22;38405;53.212;5.660;2023-12-20T03:03:49;7.40;99.90
52495;DHT22;38405;53.212;5.660;2023-12-20T03:06:18;7.70;99.90
52495;DHT22;38405;53.212;5.660;2023-12-20T03:08:45;7.50;99.90
52495;DHT22;38405;53.212;5.660;2023-12-20T03:11:11;7.90;99.90
52495;DHT22;38405;53.212;5.660;2023-12-20T03:13:36;7.60;99.90
52495;DHT22;38405;53.212;5.660;2023-12-20T03:16:08;7.50;99.90
52495;DHT22;38405;53.212;5.660;2023-12-20T03:18:34;7.80;99.90
52495;DHT22;38405;53.212;5.660;2023-12-20T03:21:00;7.60;99.90
52495;DHT22;38405;53.212;5.660;2023-12-20T03:23:25;7.60;99.90
52495;DHT22;38405;53.212;5.660;2023-12-20T03:25:52;7.60;99.90
52495;DHT22;38405;53.212;5.660;2023-12-20T03:28:18;7.60;99.90
52495;DHT22;38405;53.212;5.660;2023-12-20T03:30:44;7.80;99.90
52495;DHT22;38405;53.212;5.660;2023-12-20T03:33:10;7.60;99.90
52495;DHT22;38405;53.212;5.660;2023-12-20T03:35:36;7.50;99.90
52495;DHT22;38405;53.212;5.660;2023-12-20T03:38:01;7.60;99.90
52495;DHT22;38405;53.212;5.660;2023-12-20T03:40:27;7.50;99.90
52495;DHT22;38405;53.212;5.660;2023-12-20T03:42:53;7.50;99.90
52495;DHT22;38405;53.212;5.660;2023-12-20T03:45:18;7.60;99.90
52495;DHT22;38405;53.212;5.660;2023-12-20T03:47:44;7.50;99.90
52495;DHT22;38405;53.212;5.660;2023-12-20T03:50:09;7.60;99.90
52495;DHT22;38405;53.212;5.660;2023-12-20T03:52:35;7.70;99.90
52495;DHT22;38405;53.212;5.660;2023-12-20T03:55:00;7.70;99.90
52495;DHT22;38405;53.212;5.660;2023-12-20T03:57:26;7.70;99.90
52495;DHT22;38405;53.212;5.660;2023-12-20T03:59:52;7.70;99.90
52495;DHT22;38405;53.212;5.660;2023-12-20T04:02:17;8.00;99.90
52495;DHT22;38405;53.212;5.660;2023-12-20T04:04:43;7.70;99.90
52495;DHT22;38405;53.212;5.660;2023-12-20T04:07:09;7.70;99.90
52495;DHT22;38405;53.212;5.660;2023-12-20T04:09:35;7.80;99.90
52495;DHT22;38405;53.212;5.660;2023-12-20T04:12:00;7.70;99.90
52495;DHT22;38405;53.212;5.660;2023-12-20T04:14:26;7.70;99.90
52495;DHT22;38405;53.212;5.660;2023-12-20T04:16:52;7.70;99.90
52495;DHT22;38405;53.212;5.660;2023-12-20T04:19:18;7.70;99.90
52495;DHT22;38405;53.212;5.660;2023-12-20T04:21:43;7.70;99.90
52495;DHT22;38405;53.212;5.660;2023-12-20T04:24:09;7.80;99.90
52495;DHT22;38405;53.212;5.660;2023-12-20T04:26:35;7.70;99.90
52495;DHT22;38405;53.212;5.660;2023-12-20T04:29:00;7.80;99.90
52495;DHT22;38405;53.212;5.660;2023-12-20T04:31:26;7.80;99.90
52495;DHT22;38405;53.212;5.660;2023-12-20T04:33:51;7.80;99.90
52495;DHT22;38405;53.212;5.660;2023-12-20T04:36:17;7.80;99.90
52495;DHT22;38405;53.212;5.660;2023-12-20T04:38:43;8.00;99.90
52495;DHT22;38405;53.212;5.660;2023-12-20T04:41:08;7.80;99.90
52495;DHT22;38405;53.212;5.660;2023-12-20T04:43:34;7.90;99.90
52495;DHT22;38405;53.212;5.660;2023-12-20T04:45:59;7.90;99.90
52495;DHT22;38405;53.212;5.660;2023-12-20T04:48:25;7.90;99.90
52495;DHT22;38405;53.212;5.660;2023-12-20T04:50:51;7.80;99.90
52495;DHT22;38405;53.212;5.660;2023-12-20T04:53:16;7.80;99.90
52495;DHT22;38405;53.212;5.660;2023-12-20T04:55:42;8.10;99.90
52495;DHT22;38405;53.212;5.660;2023-12-20T04:58:07;7.90;99.90
52495;DHT22;38405;53.212;5.660;2023-12-20T05:00:33;7.90;99.90
52495;DHT22;38405;53.212;5.660;2023-12-20T05:02:59;8.10;99.90
52495;DHT22;38405;53.212;5.660;2023-12-20T05:05:24;7.90;99.90
52495;DHT22;38405;53.212;5.660;2023-12-20T05:07:50;8.00;99.90
52495;DHT22;38405;53.212;5.660;2023-12-20T05:10:16;7.90;99.90
52495;DHT22;38405;53.212;5.660;2023-12-20T05:12:41;7.90;99.90
52495;DHT22;38405;53.212;5.660;2023-12-20T05:15:08;7.90;99.90
52495;DHT22;38405;53.212;5.660;2023-12-20T05:17:34;8.00;99.90
52495;DHT22;38405;53.212;5.660;2023-12-20T05:20:00;8.00;99.90
52495;DHT22;38405;53.212;5.660;2023-12-20T05:22:26;8.00;99.90
52495;DHT22;38405;53.212;5.660;2023-12-20T05:24:53;8.00;99.90
52495;DHT22;38405;53.212;5.660;2023-12-20T05:27:18;8.10;99.90
52495;DHT22;38405;53.212;5.660;2023-12-20T05:29:44;8.10;99.90
52495;DHT22;38405;53.212;5.660;2023-12-20T05:32:10;8.00;99.90
52495;DHT22;38405;53.212;5.660;2023-12-20T05:34:35;8.00;99.90
52495;DHT22;38405;53.212;5.660;2023-12-20T05:37:02;8.00;99.90
52495;DHT22;38405;53.212;5.660;2023-12-20T05:39:28;8.00;99.90
52495;DHT22;38405;53.212;5.660;2023-12-20T05:41:54;8.00;99.90
52495;DHT22;38405;53.212;5.660;2023-12-20T05:44:19;8.00;99.90
52495;DHT22;38405;53.212;5.660;2023-12-20T05:46:45;8.40;99.90
52495;DHT22;38405;53.212;5.660;2023-12-20T05:49:10;8.00;99.90
52495;DHT22;38405;53.212;5.660;2023-12-20T05:51:36;8.10;99.90
52495;DHT22;38405;53.212;5.660;2023-12-20T05:54:02;8.10;99.90
52495;DHT22;38405;53.212;5.660;2023-12-20T05:56:27;8.00;99.90
52495;DHT22;38405;53.212;5.660;2023-12-20T05:58:53;8.10;99.90
52495;DHT22;38405;53.212;5.660;2023-12-20T06:01:19;8.00;99.90
52495;DHT22;38405;53.212;5.660;2023-12-20T06:03:44;8.00;99.90
52495;DHT22;38405;53.212;5.660;2023-12-20T06:06:11;8.00;99.90
52495;DHT22;38405;53.212;5.660;2023-12-20T06:08:38;8.00;99.90
52495;DHT22;38405;53.212;5.660;2023-12-20T06:11:04;8.00;99.90
52495;DHT22;38405;53.212;5.660;2023-12-20T06:13:31;8.10;99.90
52495;DHT22;38405;53.212;5.660;2023-12-20T06:15:57;8.00;99.90
52495;DHT22;38405;53.212;5.660;2023-12-20T06:18:23;8.10;99.90
52495;DHT22;38405;53.212;5.660;2023-12-20T06:20:48;8.10;99.90
52495;DHT22;38405;53.212;5.660;2023-12-20T06:23:14;8.10;99.90
52495;DHT22;38405;53.212;5.660;2023-12-20T06:25:40;8.30;99.90
52495;DHT22;38405;53.212;5.660;2023-12-20T06:28:06;8.10;99.90
52495;DHT22;38405;53.212;5.660;2023-12-20T06:30:32;8.20;99.90
52495;DHT22;38405;53.212;5.660;2023-12-20T06:32:58;8.10;99.90
52495;DHT22;38405;53.212;5.660;2023-12-20T06:35:24;8.20;99.90
52495;DHT22;38405;53.212;5.660;2023-12-20T06:37:49;8.20;99.90
52495;DHT22;38405;53.212;5.660;2023-12-20T06:40:15;8.10;99.90
52495;DHT22;38405;53.212;5.660;2023-12-20T06:42:41;8.10;99.90
52495;DHT22;38405;53.212;5.660;2023-12-20T06:45:07;8.10;99.90
52495;DHT22;38405;53.212;5.660;2023-12-20T06:47:33;8.10;99.90
52495;DHT22;38405;53.212;5.660;2023-12-20T06:49:59;8.10;99.90
52495;DHT22;38405;53.212;5.660;2023-12-20T06:52:25;8.10;99.90
52495;DHT22;38405;53.212;5.660;2023-12-20T06:54:50;8.10;99.90
52495;DHT22;38405;53.212;5.660;2023-12-20T06:57:16;8.00;99.90
52495;DHT22;38405;53.212;5.660;2023-12-20T06:59:42;7.90;99.90
52495;DHT22;38405;53.212;5.660;2023-12-20T07:02:08;7.90;99.90
52495;DHT22;38405;53.212;5.660;2023-12-20T07:04:38;8.00;99.90
52495;DHT22;38405;53.212;5.660;2023-12-20T07:07:04;8.00;99.90
52495;DHT22;38405;53.212;5.660;2023-12-20T07:09:29;8.00;99.90
52495;DHT22;38405;53.212;5.660;2023-12-20T07:11:55;8.00;99.90
52495;DHT22;38405;53.212;5.660;2023-12-20T07:14:21;8.00;99.90
52495;DHT22;38405;53.212;5.660;2023-12-20T07:16:47;7.90;99.90
52495;DHT22;38405;53.212;5.660;2023-12-20T07:19:12;7.90;99.90
52495;DHT22;38405;53.212;5.660;2023-12-20T07:21:38;8.00;99.90
52495;DHT22;38405;53.212;5.660;2023-12-20T07:24:04;8.00;99.90
52495;DHT22;38405;53.212;5.660;2023-12-20T07:26:29;8.00;99.90
52495;DHT22;38405;53.212;5.660;2023-12-20T07:28:55;8.00;99.90
52495;DHT22;38405;53.212;5.660;2023-12-20T07:31:21;8.00;99.90
52495;DHT22;38405;53.212;5.660;2023-12-20T07:33:47;8.20;99.90
52495;DHT22;38405;53.212;5.660;2023-12-20T07:36:13;8.10;99.90
52495;DHT22;38405;53.212;5.660;2023-12-20T07:38:38;8.10;99.90
52495;DHT22;38405;53.212;5.660;2023-12-20T07:41:04;8.10;99.90
52495;DHT22;38405;53.212;5.660;2023-12-20T07:43:30;8.20;99.90
52495;DHT22;38405;53.212;5.660;2023-12-20T07:45:55;8.10;99.90
52495;DHT22;38405;53.212;5.660;2023-12-20T07:48:21;8.10;99.90
52495;DHT22;38405;53.212;5.660;2023-12-20T07:50:47;8.00;99.90
52495;DHT22;38405;53.212;5.660;2023-12-20T07:53:13;7.90;99.90
52495;DHT22;38405;53.212;5.660;2023-12-20T07:55:39;7.40;99.90
52495;DHT22;38405;53.212;5.660;2023-12-20T07:58:04;7.90;99.90
52495;DHT22;38405;53.212;5.660;2023-12-20T08:00:30;7.40;99.90
52495;DHT22;38405;53.212;5.660;2023-12-20T08:02:56;7.30;99.90
52495;DHT22;38405;53.212;5.660;2023-12-20T08:05:21;7.40;99.90
52495;DHT22;38405;53.212;5.660;2023-12-20T08:07:47;7.50;99.90
52495;DHT22;38405;53.212;5.660;2023-12-20T08:10:13;7.80;99.90
52495;DHT22;38405;53.212;5.660;2023-12-20T08:12:39;7.50;99.90
52495;DHT22;38405;53.212;5.660;2023-12-20T08:15:05;8.10;99.90
52495;DHT22;38405;53.212;5.660;2023-12-20T08:17:31;7.70;99.90
52495;DHT22;38405;53.212;5.660;2023-12-20T08:19:57;7.80;99.90
52495;DHT22;38405;53.212;5.660;2023-12-20T08:22:22;7.80;99.90
52495;DHT22;38405;53.212;5.660;2023-12-20T08:24:48;7.90;99.90
52495;DHT22;38405;53.212;5.660;2023-12-20T08:27:14;8.00;99.90
52495;DHT22;38405;53.212;5.660;2023-12-20T08:29:40;8.10;99.90
52495;DHT22;38405;53.212;5.660;2023-12-20T08:32:05;8.10;99.90
52495;DHT22;38405;53.212;5.660;2023-12-20T08:34:31;8.10;99.90
52495;DHT22;38405;53.212;5.660;2023-12-20T08:36:57;8.10;99.90
52495;DHT22;38405;53.212;5.660;2023-12-20T08:39:22;8.10;99.90
52495;DHT22;38405;53.212;5.660;2023-12-20T08:41:48;8.10;99.90
52495;DHT22;38405;53.212;5.660;2023-12-20T08:44:13;8.00;99.90
52495;DHT22;38405;53.212;5.660;2023-12-20T08:46:39;8.10;99.90
52495;DHT22;38405;53.212;5.660;2023-12-20T08:49:05;8.10;99.90
52495;DHT22;38405;53.212;5.660;2023-12-20T08:51:30;8.10;99.90
52495;DHT22;38405;53.212;5.660;2023-12-20T08:53:56;8.30;99.90
52495;DHT22;38405;53.212;5.660;2023-12-20T08:56:22;8.10;99.90
52495;DHT22;38405;53.212;5.660;2023-12-20T08:58:47;7.70;99.90
52495;DHT22;38405;53.212;5.660;2023-12-20T09:01:14;7.30;99.90
52495;DHT22;38405;53.212;5.660;2023-12-20T09:03:40;7.10;99.90
52495;DHT22;38405;53.212;5.660;2023-12-20T09:06:06;6.90;99.90
52495;DHT22;38405;53.212;5.660;2023-12-20T09:08:31;6.80;99.90
52495;DHT22;38405;53.212;5.660;2023-12-20T09:10:57;7.10;99.90
52495;DHT22;38405;53.212;5.660;2023-12-20T09:13:23;6.70;99.90
52495;DHT22;38405;53.212;5.660;2023-12-20T09:15:55;6.60;99.90
52495;DHT22;38405;53.212;5.660;2023-12-20T09:18:21;6.50;99.90
52495;DHT22;38405;53.212;5.660;2023-12-20T09:20:47;6.40;99.90
52495;DHT22;38405;53.212;5.660;2023-12-20T09:23:12;6.40;99.90
52495;DHT22;38405;53.212;5.660;2023-12-20T09:25:38;6.50;99.90
52495;DHT22;38405;53.212;5.660;2023-12-20T09:28:04;6.60;99.90
52495;DHT22;38405;53.212;5.660;2023-12-20T09:30:29;6.40;99.90
52495;DHT22;38405;53.212;5.660;2023-12-20T09:32:55;6.50;99.90
52495;DHT22;38405;53.212;5.660;2023-12-20T09:35:22;7.00;99.90
52495;DHT22;38405;53.212;5.660;2023-12-20T09:37:47;6.70;99.90
52495;DHT22;38405;53.212;5.660;2023-12-20T09:40:13;6.70;99.90
52495;DHT22;38405;53.212;5.660;2023-12-20T09:45:14;6.70;99.90
52495;DHT22;38405;53.212;5.660;2023-12-20T09:47:40;6.70;99.90
52495;DHT22;38405;53.212;5.660;2023-12-20T09:50:07;6.70;99.90
52495;DHT22;38405;53.212;5.660;2023-12-20T09:52:34;6.60;99.90
52495;DHT22;38405;53.212;5.660;2023-12-20T09:55:03;6.90;99.90
52495;DHT22;38405;53.212;5.660;2023-12-20T09:57:31;6.60;99.90
52495;DHT22;38405;53.212;5.660;2023-12-20T09:59:57;6.60;99.90
52495;DHT22;38405;53.212;5.660;2023-12-20T10:02:25;6.80;99.90
52495;DHT22;38405;53.212;5.660;2023-12-20T10:04:53;7.10;99.90
52495;DHT22;38405;53.212;5.660;2023-12-20T10:07:19;7.50;99.90
52495;DHT22;38405;53.212;5.660;2023-12-20T10:09:47;7.60;99.90
52495;DHT22;38405;53.212;5.660;2023-12-20T10:12:13;7.80;99.90
52495;DHT22;38405;53.212;5.660;2023-12-20T10:14:39;7.80;99.90
52495;DHT22;38405;53.212;5.660;2023-12-20T10:17:05;7.80;99.90
52495;DHT22;38405;53.212;5.660;2023-12-20T10:19:32;7.70;99.90
52495;DHT22;38405;53.212;5.660;2023-12-20T10:21:59;7.70;99.90
52495;DHT22;38405;53.212;5.660;2023-12-20T10:24:25;7.70;99.90
52495;DHT22;38405;53.212;5.660;2023-12-20T10:27:07;7.80;99.90
52495;DHT22;38405;53.212;5.660;2023-12-20T10:29:37;7.70;99.90
52495;DHT22;38405;53.212;5.660;2023-12-20T10:32:22;7.70;99.90
52495;DHT22;38405;53.212;5.660;2023-12-20T10:34:52;7.70;99.90
52495;DHT22;38405;53.212;5.660;2023-12-20T10:37:18;7.70;99.90
52495;DHT22;38405;53.212;5.660;2023-12-20T10:39:44;7.70;99.90
52495;DHT22;38405;53.212;5.660;2023-12-20T10:42:14;7.90;99.90
52495;DHT22;38405;53.212;5.660;2023-12-20T10:44:41;8.00;99.90
52495;DHT22;38405;53.212;5.660;2023-12-20T10:47:06;7.70;99.90
52495;DHT22;38405;53.212;5.660;2023-12-20T10:49:36;7.80;99.90
52495;DHT22;38405;53.212;5.660;2023-12-20T10:52:04;7.80;99.90
52495;DHT22;38405;53.212;5.660;2023-12-20T10:54:31;7.80;99.90
52495;DHT22;38405;53.212;5.660;2023-12-20T10:56:57;8.30;99.90
52495;DHT22;38405;53.212;5.660;2023-12-20T10:59:24;8.20;99.90
52495;DHT22;38405;53.212;5.660;2023-12-20T11:01:50;8.00;99.90
52495;DHT22;38405;53.212;5.660;2023-12-20T11:04:24;8.00;99.90
52495;DHT22;38405;53.212;5.660;2023-12-20T11:07:42;8.10;99.90
52495;DHT22;38405;53.212;5.660;2023-12-20T11:12:53;8.40;99.90
52495;DHT22;38405;53.212;5.660;2023-12-20T11:15:21;8.50;99.90
52495;DHT22;38405;53.212;5.660;2023-12-20T11:17:54;8.70;99.90
52495;DHT22;38405;53.212;5.660;2023-12-20T11:20:43;8.90;99.90
52495;DHT22;38405;53.212;5.660;2023-12-20T11:23:09;9.20;99.90
52495;DHT22;38405;53.212;5.660;2023-12-20T11:25:57;9.40;99.90
52495;DHT22;38405;53.212;5.660;2023-12-20T11:28:26;9.20;99.90
52495;DHT22;38405;53.212;5.660;2023-12-20T11:30:56;9.10;99.90
52495;DHT22;38405;53.212;5.660;2023-12-20T11:33:45;9.00;99.90
52495;DHT22;38405;53.212;5.660;2023-12-20T11:36:19;8.80;99.90
52495;DHT22;38405;53.212;5.660;2023-12-20T11:38:58;8.70;99.90
52495;DHT22;38405;53.212;5.660;2023-12-20T11:41:25;8.60;99.90
52495;DHT22;38405;53.212;5.660;2023-12-20T11:43:55;8.60;99.90
52495;DHT22;38405;53.212;5.660;2023-12-20T11:46:22;8.50;99.90
52495;DHT22;38405;53.212;5.660;2023-12-20T11:48:48;8.50;99.90
52495;DHT22;38405;53.212;5.660;2023-12-20T11:51:14;8.50;99.90
52495;DHT22;38405;53.212;5.660;2023-12-20T11:53:42;8.60;99.90
52495;DHT22;38405;53.212;5.660;2023-12-20T11:56:08;8.40;99.90
52495;DHT22;38405;53.212;5.660;2023-12-20T11:58:35;8.30;99.90
52495;DHT22;38405;53.212;5.660;2023-12-20T12:01:01;8.30;99.90
52495;DHT22;38405;53.212;5.660;2023-12-20T12:03:30;8.20;99.90
52495;DHT22;38405;53.212;5.660;2023-12-20T12:05:55;8.10;99.90
52495;DHT22;38405;53.212;5.660;2023-12-20T12:08:21;8.10;99.90
52495;DHT22;38405;53.212;5.660;2023-12-20T12:10:47;8.10;99.90
52495;DHT22;38405;53.212;5.660;2023-12-20T12:13:12;8.00;99.90
52495;DHT22;38405;53.212;5.660;2023-12-20T12:15:39;7.90;99.90
52495;DHT22;38405;53.212;5.660;2023-12-20T12:18:07;7.90;99.90
52495;DHT22;38405;53.212;5.660;2023-12-20T12:20:33;8.20;99.90
52495;DHT22;38405;53.212;5.660;2023-12-20T12:23:04;7.70;99.90
52495;DHT22;38405;53.212;5.660;2023-12-20T12:25:31;7.60;99.90
52495;DHT22;38405;53.212;5.660;2023-12-20T12:27:58;7.60;99.90
52495;DHT22;38405;53.212;5.660;2023-12-20T12:30:23;7.50;99.90
52495;DHT22;38405;53.212;5.660;2023-12-20T12:32:51;7.50;99.90
52495;DHT22;38405;53.212;5.660;2023-12-20T12:35:18;7.40;99.90
52495;DHT22;38405;53.212;5.660;2023-12-20T12:37:44;7.40;99.90
52495;DHT22;38405;53.212;5.660;2023-12-20T12:40:10;7.50;99.90
52495;DHT22;38405;53.212;5.660;2023-12-20T12:42:37;7.30;99.90
52495;DHT22;38405;53.212;5.660;2023-12-20T12:45:03;7.30;99.90
52495;DHT22;38405;53.212;5.660;2023-12-20T12:47:31;7.20;99.90
52495;DHT22;38405;53.212;5.660;2023-12-20T12:49:57;7.20;99.90
52495;DHT22;38405;53.212;5.660;2023-12-20T12:52:22;7.10;99.90
52495;DHT22;38405;53.212;5.660;2023-12-20T12:54:48;7.10;99.90
52495;DHT22;38405;53.212;5.660;2023-12-20T12:57:15;7.00;99.90
52495;DHT22;38405;53.212;5.660;2023-12-20T12:59:44;7.00;99.90
52495;DHT22;38405;53.212;5.660;2023-12-20T13:02:13;7.00;99.90
52495;DHT22;38405;53.212;5.660;2023-12-20T13:04:43;7.00;99.90
52495;DHT22;38405;53.212;5.660;2023-12-20T13:07:09;7.00;99.90
52495;DHT22;38405;53.212;5.660;2023-12-20T13:09:38;7.10;99.90
52495;DHT22;38405;53.212;5.660;2023-12-20T13:12:05;6.90;99.90
52495;DHT22;38405;53.212;5.660;2023-12-20T13:14:34;6.90;99.90
52495;DHT22;38405;53.212;5.660;2023-12-20T13:17:03;6.90;99.90
52495;DHT22;38405;53.212;5.660;2023-12-20T13:19:29;6.90;99.90
52495;DHT22;38405;53.212;5.660;2023-12-20T13:21:56;6.90;99.90
52495;DHT22;38405;53.212;5.660;2023-12-20T13:24:21;6.90;99.90
52495;DHT22;38405;53.212;5.660;2023-12-20T13:26:47;6.90;99.90
52495;DHT22;38405;53.212;5.660;2023-12-20T13:29:13;6.90;99.90
52495;DHT22;38405;53.212;5.660;2023-12-20T13:31:38;7.30;99.90
52495;DHT22;38405;53.212;5.660;2023-12-20T13:34:06;6.90;99.90
52495;DHT22;38405;53.212;5.660;2023-12-20T13:36:31;6.90;99.90
52495;DHT22;38405;53.212;5.660;2023-12-20T13:38:57;7.00;99.90
52495;DHT22;38405;53.212;5.660;2023-12-20T13:41:22;7.00;99.90
52495;DHT22;38405;53.212;5.660;2023-12-20T13:43:48;7.40;99.90
52495;DHT22;38405;53.212;5.660;2023-12-20T13:46:14;7.20;99.90
52495;DHT22;38405;53.212;5.660;2023-12-20T13:48:40;7.10;99.90
52495;DHT22;38405;53.212;5.660;2023-12-20T13:51:05;7.20;99.90
52495;DHT22;38405;53.212;5.660;2023-12-20T13:53:31;7.20;99.90
52495;DHT22;38405;53.212;5.660;2023-12-20T13:55:57;7.10;99.90
52495;DHT22;38405;53.212;5.660;2023-12-20T13:58:23;7.60;99.90
52495;DHT22;38405;53.212;5.660;2023-12-20T14:00:49;7.20;99.90
52495;DHT22;38405;53.212;5.660;2023-12-20T14:03:14;7.20;99.90
52495;DHT22;38405;53.212;5.660;2023-12-20T14:05:40;7.10;99.90
52495;DHT22;38405;53.212;5.660;2023-12-20T14:08:06;7.30;99.90
52495;DHT22;38405;53.212;5.660;2023-12-20T14:10:32;7.20;99.90
52495;DHT22;38405;53.212;5.660;2023-12-20T14:12:58;7.20;99.90
52495;DHT22;38405;53.212;5.660;2023-12-20T14:15:24;7.20;99.90
52495;DHT22;38405;53.212;5.660;2023-12-20T14:17:50;7.40;99.90
52495;DHT22;38405;53.212;5.660;2023-12-20T14:20:16;7.20;99.90
52495;DHT22;38405;53.212;5.660;2023-12-20T14:22:43;7.40;99.90
52495;DHT22;38405;53.212;5.660;2023-12-20T14:25:13;7.50;99.90
52495;DHT22;38405;53.212;5.660;2023-12-20T14:27:40;7.60;99.90
52495;DHT22;38405;53.212;5.660;2023-12-20T14:30:06;7.70;99.90
52495;DHT22;38405;53.212;5.660;2023-12-20T14:32:34;7.70;99.90
52495;DHT22;38405;53.212;5.660;2023-12-20T14:35:02;7.80;99.90
52495;DHT22;38405;53.212;5.660;2023-12-20T14:37:29;7.80;99.90
52495;DHT22;38405;53.212;5.660;2023-12-20T14:39:55;8.30;99.90
52495;DHT22;38405;53.212;5.660;2023-12-20T14:42:20;8.30;99.90
52495;DHT22;38405;53.212;5.660;2023-12-20T14:44:47;7.90;99.90
52495;DHT22;38405;53.212;5.660;2023-12-20T14:47:13;7.90;99.90
52495;DHT22;38405;53.212;5.660;2023-12-20T14:49:41;7.90;99.90
52495;DHT22;38405;53.212;5.660;2023-12-20T14:52:08;8.00;99.90
52495;DHT22;38405;53.212;5.660;2023-12-20T14:54:37;8.00;99.90
52495;DHT22;38405;53.212;5.660;2023-12-20T14:57:02;8.00;99.90
52495;DHT22;38405;53.212;5.660;2023-12-20T14:59:28;8.00;99.90
52495;DHT22;38405;53.212;5.660;2023-12-20T15:01:54;7.90;99.90
52495;DHT22;38405;53.212;5.660;2023-12-20T15:04:20;8.00;99.90
52495;DHT22;38405;53.212;5.660;2023-12-20T15:06:52;8.00;99.90
52495;DHT22;38405;53.212;5.660;2023-12-20T15:09:18;8.10;99.90
52495;DHT22;38405;53.212;5.660;2023-12-20T15:11:43;8.10;99.90
52495;DHT22;38405;53.212;5.660;2023-12-20T15:14:09;8.10;99.90
52495;DHT22;38405;53.212;5.660;2023-12-20T15:16:35;8.10;99.90
52495;DHT22;38405;53.212;5.660;2023-12-20T15:19:01;8.00;99.90
52495;DHT22;38405;53.212;5.660;2023-12-20T15:21:26;8.00;99.90
52495;DHT22;38405;53.212;5.660;2023-12-20T15:23:59;7.90;99.90
52495;DHT22;38405;53.212;5.660;2023-12-20T15:26:33;8.00;99.90
52495;DHT22;38405;53.212;5.660;2023-12-20T15:29:00;7.90;99.90
52495;DHT22;38405;53.212;5.660;2023-12-20T15:31:27;7.90;99.90
52495;DHT22;38405;53.212;5.660;2023-12-20T15:33:53;8.10;99.90
52495;DHT22;38405;53.212;5.660;2023-12-20T15:36:19;7.90;99.90
52495;DHT22;38405;53.212;5.660;2023-12-20T15:38:45;7.90;99.90
52495;DHT22;38405;53.212;5.660;2023-12-20T15:41:21;8.00;99.90
52495;DHT22;38405;53.212;5.660;2023-12-20T15:43:47;8.20;99.90
52495;DHT22;38405;53.212;5.660;2023-12-20T15:46:14;8.10;99.90